createdAt,value
2023-03-12T00:00:08.895Z,59.03
2023-03-12T00:04:11.814Z,59.01
2023-03-12T00:08:16.385Z,59.73
2023-03-12T00:12:19.374Z,59.63
2023-03-12T00:16:23.474Z,59.50
2023-03-12T00:20:27.037Z,59.67
2023-03-12T00:24:31.577Z,59.80
2023-03-12T00:28:35.572Z,59.34
2023-03-12T00:32:39.563Z,59.30
2023-03-12T00:36:42.672Z,59.36
2023-03-12T00:40:47.365Z,59.39
2023-03-12T00:44:50.267Z,59.10
2023-03-12T00:48:53.470Z,58.89
2023-03-12T00:52:56.494Z,59.02
2023-03-12T00:57:01.269Z,58.84
2023-03-12T01:01:04.820Z,58.11
2023-03-12T01:05:10.093Z,58.47
2023-03-12T01:09:13.292Z,58.21
2023-03-12T01:13:18.109Z,59.15
2023-03-12T01:17:21.163Z,58.59
2023-03-12T01:21:24.827Z,58.79
2023-03-12T01:25:27.739Z,59.04
2023-03-12T01:29:32.895Z,59.98
2023-03-12T01:33:35.921Z,60.30
2023-03-12T01:37:39.146Z,60.83
2023-03-12T01:41:42.201Z,60.83
2023-03-12T01:46:23.062Z,59.63
2023-03-12T01:50:26.394Z,60.27
2023-03-12T01:55:12.883Z,59.17
2023-03-12T01:59:21.563Z,59.75
2023-03-12T02:03:26.251Z,59.43
2023-03-12T02:07:29.569Z,59.41
2023-03-12T02:11:32.896Z,59.44
2023-03-12T02:15:37.129Z,59.34
2023-03-12T02:19:50.531Z,59.54
2023-03-12T02:24:02.512Z,59.27
2023-03-12T02:28:10.879Z,59.59
2023-03-12T02:32:21.661Z,59.47
2023-03-12T02:36:25.069Z,60.23
2023-03-12T02:40:32.811Z,60.37
2023-03-12T02:44:38.274Z,59.21
2023-03-12T02:48:41.558Z,59.80
2023-03-12T02:52:44.806Z,59.32
2023-03-12T02:56:48.436Z,60.03
2023-03-12T03:00:53.295Z,60.18
2023-03-12T03:04:56.530Z,60.18
2023-03-12T03:09:00.200Z,59.45
2023-03-12T03:13:03.199Z,60.16
2023-03-12T03:17:07.946Z,59.47
2023-03-12T03:21:16.687Z,58.69
2023-03-12T03:25:22.452Z,58.91
2023-03-12T03:29:25.365Z,58.65
2023-03-12T03:33:30.977Z,58.40
2023-03-12T03:37:34.191Z,58.31
2023-03-12T03:41:37.693Z,57.84
2023-03-12T03:45:40.831Z,58.78
2023-03-12T03:49:45.420Z,58.52
2023-03-12T03:53:48.311Z,58.74
2023-03-12T03:57:51.656Z,59.13
2023-03-12T04:01:54.562Z,58.52
2023-03-12T04:06:02.291Z,58.83
2023-03-12T04:10:06.141Z,59.10
2023-03-12T04:14:09.096Z,58.99
2023-03-12T04:18:12.144Z,58.57
2023-03-12T04:22:16.772Z,58.10
2023-03-12T04:26:20.636Z,58.76
2023-03-12T04:30:24.062Z,58.54
2023-03-12T04:34:27.092Z,57.91
2023-03-12T04:38:32.501Z,57.93
2023-03-12T04:42:36.490Z,58.21
2023-03-12T04:46:39.884Z,58.07
2023-03-12T04:50:43.630Z,58.06
2023-03-12T04:54:48.234Z,58.16
2023-03-12T04:58:51.344Z,58.36
2023-03-12T05:02:55.411Z,57.75
2023-03-12T05:06:58.490Z,57.70
2023-03-12T05:11:03.292Z,57.94
2023-03-12T05:15:06.928Z,58.58
2023-03-12T05:19:10.102Z,59.00
2023-03-12T05:23:13.098Z,59.34
2023-03-12T05:27:19.996Z,59.20
2023-03-12T05:31:23.193Z,59.01
2023-03-12T05:35:26.623Z,59.12
2023-03-12T05:39:29.810Z,59.59
2023-03-12T05:43:35.356Z,59.76
2023-03-12T05:47:38.253Z,59.84
2023-03-12T05:51:42.187Z,60.12
2023-03-12T05:55:45.296Z,59.75
2023-03-12T05:59:50.327Z,59.77
2023-03-12T06:03:53.250Z,59.50
2023-03-12T06:07:56.470Z,59.64
2023-03-12T06:11:59.669Z,59.93
2023-03-12T06:16:10.011Z,59.63
2023-03-12T06:20:13.689Z,59.02
2023-03-12T06:24:16.929Z,58.81
2023-03-12T06:28:20.069Z,58.37
2023-03-12T06:32:25.062Z,57.37
2023-03-12T06:36:28.392Z,57.69
2023-03-12T06:40:31.578Z,57.88
2023-03-12T06:44:34.589Z,57.49
2023-03-12T06:48:41.772Z,56.54
2023-03-12T06:52:44.834Z,56.04
2023-03-12T06:56:48.142Z,56.20
2023-03-12T07:00:51.248Z,55.32
2023-03-12T07:04:56.484Z,55.27
2023-03-12T07:08:59.576Z,53.74
2023-03-12T07:13:02.969Z,53.74
2023-03-12T07:17:08.560Z,51.97
2023-03-12T07:21:13.214Z,51.05
2023-03-12T07:25:18.639Z,50.51
2023-03-12T07:29:22.350Z,49.93
2023-03-12T07:33:25.342Z,49.16
2023-03-12T07:37:30.126Z,48.45
2023-03-12T07:41:33.086Z,47.76
2023-03-12T07:45:36.379Z,47.83
2023-03-12T07:49:41.808Z,46.35
2023-03-12T07:53:46.527Z,45.49
2023-03-12T07:57:49.545Z,44.42
2023-03-12T08:01:53.076Z,44.90
2023-03-12T08:06:01.513Z,45.50
2023-03-12T08:10:09.791Z,44.32
2023-03-12T08:14:16.708Z,42.64
2023-03-12T08:18:21.043Z,41.46
2023-03-12T08:22:24.365Z,40.98
2023-03-12T08:26:29.022Z,40.55
2023-03-12T08:30:32.708Z,39.62
2023-03-12T08:34:37.027Z,39.78
2023-03-12T08:38:40.489Z,40.47
2023-03-12T08:42:46.617Z,41.64
2023-03-12T08:46:49.752Z,40.39
2023-03-12T08:50:53.522Z,39.95
2023-03-12T08:54:56.673Z,37.46
2023-03-12T08:59:01.491Z,38.01
2023-03-12T09:03:05.181Z,38.68
2023-03-12T09:07:09.917Z,38.12
2023-03-12T09:11:14.575Z,37.87
2023-03-12T09:15:19.612Z,39.04
2023-03-12T09:19:22.772Z,38.61
2023-03-12T09:23:26.943Z,38.81
2023-03-12T09:27:29.799Z,37.39
2023-03-12T09:31:34.976Z,41.15
2023-03-12T09:35:38.261Z,39.21
2023-03-12T09:39:41.444Z,38.48
2023-03-12T09:43:50.394Z,39.45
2023-03-12T09:47:57.481Z,38.32
2023-03-12T09:52:03.569Z,37.48
2023-03-12T09:56:10.631Z,37.67
2023-03-12T10:00:16.734Z,37.34
2023-03-12T10:04:56.393Z,39.01
2023-03-12T10:09:18.127Z,38.09
2023-03-12T10:13:48.991Z,38.61
2023-03-12T10:18:05.448Z,36.00
2023-03-12T10:22:26.729Z,37.67
2023-03-12T10:26:36.384Z,35.02
2023-03-12T10:30:42.948Z,35.32
2023-03-12T10:34:50.033Z,37.61
2023-03-12T10:38:54.572Z,35.97
2023-03-12T10:42:58.150Z,35.69
2023-03-12T10:47:08.475Z,37.03
2023-03-12T10:51:13.257Z,37.48
2023-03-12T10:55:26.702Z,38.19
2023-03-12T10:59:32.505Z,38.00
2023-03-12T11:03:35.978Z,37.65
2023-03-12T11:07:45.610Z,40.16
2023-03-12T11:11:51.675Z,39.71
2023-03-12T11:15:56.471Z,42.02
2023-03-12T11:19:59.688Z,43.73
2023-03-12T11:24:09.606Z,43.11
2023-03-12T11:28:24.945Z,43.99
2023-03-12T11:32:34.666Z,44.14
2023-03-12T11:36:49.182Z,44.74
2023-03-12T11:41:08.630Z,45.52
2023-03-12T11:45:24.283Z,45.95
2023-03-12T11:49:40.663Z,45.54
2023-03-12T11:54:03.808Z,46.24
2023-03-12T11:58:24.726Z,45.75
2023-03-12T12:02:53.295Z,46.44
2023-03-12T12:07:07.143Z,47.67
2023-03-12T12:11:16.442Z,47.88
2023-03-12T12:15:32.302Z,48.41
2023-03-12T12:19:51.064Z,48.60
2023-03-12T12:24:00.826Z,50.54
2023-03-12T12:28:25.490Z,48.49
2023-03-12T12:32:41.324Z,49.45
2023-03-12T12:36:50.934Z,48.45
2023-03-12T12:40:56.640Z,48.66
2023-03-12T12:45:04.115Z,47.66
2023-03-12T12:49:13.766Z,47.57
2023-03-12T12:53:24.775Z,47.58
2023-03-12T12:57:38.332Z,47.29
2023-03-12T13:01:42.711Z,48.70
2023-03-12T13:05:54.333Z,48.32
2023-03-12T13:09:59.987Z,48.18
2023-03-12T13:14:21.930Z,48.00
2023-03-12T13:18:27.270Z,48.69
2023-03-12T13:22:55.727Z,48.61
2023-03-12T13:27:06.346Z,48.81
2023-03-12T13:31:36.634Z,48.89
2023-03-12T13:35:41.265Z,50.29
2023-03-12T13:39:46.067Z,48.50
2023-03-12T13:43:54.892Z,49.36
2023-03-12T13:48:03.137Z,48.52
2023-03-12T13:52:21.113Z,48.12
2023-03-12T13:56:28.700Z,48.25
2023-03-12T14:00:39.462Z,47.97
2023-03-12T14:04:43.556Z,47.92
2023-03-12T14:08:58.872Z,48.23
2023-03-12T14:13:14.766Z,48.79
2023-03-12T14:17:21.866Z,48.67
2023-03-12T14:21:30.261Z,49.54
2023-03-12T14:25:37.719Z,49.61
2023-03-12T14:29:44.801Z,50.03
2023-03-12T14:34:06.753Z,50.22
2023-03-12T14:38:17.420Z,50.45
2023-03-12T14:42:26.618Z,50.35
2023-03-12T14:46:29.607Z,50.81
2023-03-12T14:50:41.922Z,51.65
2023-03-12T14:54:55.032Z,51.62
2023-03-12T14:58:59.617Z,51.57
2023-03-12T15:03:12.066Z,52.19
2023-03-12T15:07:22.484Z,52.56
2023-03-12T15:11:28.662Z,52.98
2023-03-12T15:15:38.264Z,54.11
2023-03-12T15:19:41.568Z,55.33
2023-03-12T15:23:49.388Z,55.42
2023-03-12T15:28:09.369Z,55.15
2023-03-12T15:32:16.120Z,56.03
2023-03-12T15:36:28.694Z,55.82
2023-03-12T15:40:33.778Z,56.98
2023-03-12T15:44:47.070Z,56.70
2023-03-12T15:48:53.224Z,58.36
2023-03-12T15:53:06.153Z,58.38
2023-03-12T15:57:24.501Z,57.50
2023-03-12T16:01:28.274Z,59.81
2023-03-12T16:05:34.493Z,59.96
2023-03-12T16:09:37.403Z,59.83
2023-03-12T16:13:42.392Z,60.32
2023-03-12T16:17:45.627Z,60.16
2023-03-12T16:21:49.564Z,60.48
2023-03-12T16:25:55.752Z,60.58
2023-03-12T16:30:03.311Z,60.89
2023-03-12T16:34:06.410Z,60.39
2023-03-12T16:38:10.065Z,61.46
2023-03-12T16:42:27.143Z,61.13
2023-03-12T16:46:33.487Z,61.40
2023-03-12T16:50:36.545Z,61.46
2023-03-12T16:54:40.021Z,60.97
2023-03-12T16:58:43.071Z,62.12
2023-03-12T17:02:48.352Z,62.23
2023-03-12T17:06:51.532Z,61.78
2023-03-12T17:10:56.440Z,61.16
2023-03-12T17:15:01.684Z,61.45
2023-03-12T17:19:06.749Z,61.85
2023-03-12T17:23:12.378Z,61.69
2023-03-12T17:27:15.716Z,61.86
2023-03-12T17:31:18.779Z,64.04
2023-03-12T17:35:24.033Z,63.94
2023-03-12T17:39:27.339Z,64.89
2023-03-12T17:43:30.691Z,63.48
2023-03-12T17:47:34.047Z,64.84
2023-03-12T17:51:38.994Z,64.82
2023-03-12T17:55:41.845Z,65.15
2023-03-12T17:59:45.180Z,64.91
2023-03-12T18:03:50.112Z,65.32
2023-03-12T18:07:55.558Z,65.05
2023-03-12T18:11:58.533Z,65.44
2023-03-12T18:16:05.961Z,66.22
2023-03-12T18:20:13.683Z,66.17
2023-03-12T18:24:18.261Z,67.47
2023-03-12T18:28:22.481Z,67.21
2023-03-12T18:32:25.796Z,66.74
2023-03-12T18:36:28.799Z,66.67
2023-03-12T18:40:34.258Z,66.88
2023-03-12T18:44:37.364Z,65.83
2023-03-12T18:48:43.636Z,65.74
2023-03-12T18:52:47.367Z,65.66
2023-03-12T18:56:52.516Z,65.47
2023-03-12T19:00:57.181Z,65.45
2023-03-12T19:05:00.390Z,65.55
2023-03-12T19:09:03.918Z,65.59
2023-03-12T19:13:08.528Z,65.52
2023-03-12T19:17:12.017Z,65.19
2023-03-12T19:21:15.558Z,64.87
2023-03-12T19:25:19.098Z,64.51
2023-03-12T19:29:23.726Z,64.20
2023-03-12T19:33:28.109Z,64.51
2023-03-12T19:37:31.532Z,65.07
2023-03-12T19:41:34.447Z,64.69
2023-03-12T19:45:39.504Z,64.51
2023-03-12T19:49:42.487Z,65.20
2023-03-12T19:53:47.004Z,65.81
2023-03-12T19:57:50.392Z,66.12
2023-03-12T20:01:55.829Z,66.57
2023-03-12T20:06:00.618Z,65.91
2023-03-12T20:10:04.820Z,66.28
2023-03-12T20:14:07.834Z,66.41
2023-03-12T20:18:13.263Z,65.90
2023-03-12T20:22:18.070Z,65.71
2023-03-12T20:26:21.910Z,65.92
2023-03-12T20:30:28.854Z,66.00
2023-03-12T20:34:33.927Z,66.04
2023-03-12T20:38:37.102Z,66.50
2023-03-12T20:42:43.761Z,65.65
2023-03-12T20:46:58.881Z,66.08
2023-03-12T20:51:03.982Z,66.21
2023-03-12T20:55:07.860Z,66.51
2023-03-12T20:59:13.033Z,66.63
2023-03-12T21:03:17.008Z,66.82
2023-03-12T21:07:22.072Z,66.84
2023-03-12T21:11:27.840Z,67.88
2023-03-12T21:15:31.810Z,67.67
2023-03-12T21:19:35.051Z,67.73
2023-03-12T21:23:40.264Z,67.74
2023-03-12T21:27:50.539Z,69.72
2023-03-12T21:31:54.750Z,70.38
2023-03-12T21:35:58.079Z,70.06
2023-03-12T21:40:02.946Z,68.85
2023-03-12T21:44:06.116Z,69.49
2023-03-12T21:48:09.721Z,69.32
2023-03-12T21:52:12.678Z,69.28
2023-03-12T21:56:17.283Z,69.12
2023-03-12T22:00:21.139Z,69.28
2023-03-12T22:04:25.342Z,69.07
2023-03-12T22:08:28.324Z,68.94
2023-03-12T22:12:32.971Z,68.65
2023-03-12T22:16:38.665Z,69.05
2023-03-12T22:20:41.851Z,68.99
2023-03-12T22:24:44.756Z,68.41
2023-03-12T22:28:52.342Z,67.75
2023-03-12T22:32:55.378Z,67.68
2023-03-12T22:36:58.877Z,67.88
2023-03-12T22:41:12.746Z,67.27
2023-03-12T22:45:17.458Z,67.86
2023-03-12T22:49:20.400Z,68.27
2023-03-12T22:53:23.813Z,68.55
2023-03-12T22:57:26.793Z,68.60
2023-03-12T23:01:31.566Z,68.83
2023-03-12T23:05:36.133Z,68.73
2023-03-12T23:09:39.561Z,68.75
2023-03-12T23:13:46.384Z,69.05
2023-03-12T23:17:51.087Z,69.61
2023-03-12T23:21:54.119Z,69.57
2023-03-12T23:25:59.000Z,69.29
2023-03-12T23:30:01.906Z,69.44
2023-03-12T23:34:06.900Z,68.85
2023-03-12T23:38:10.141Z,68.95
2023-03-12T23:42:13.440Z,69.13
2023-03-12T23:46:17.955Z,69.11
2023-03-12T23:50:22.803Z,68.85
2023-03-12T23:54:25.812Z,68.94
2023-03-12T23:58:29.972Z,69.41
